Time;durP1;ratioP1;P1;durP2;ratioP2;P2;SDS_P1;SDS_P2;PMS_P1;PMS_P2;Temp;Humidity;BMP_temperature;BMP_pressure;BME280_temperature;BME280_humidity;BME280_pressure;Samples;Min_cycle;Max_cycle;Signal;HPM_P1;HPM_P2
2023/08/16 00:00:39;;;;;;;;;;;;;;;17.42;45.30;100604.94;5098263;28;987;-58
2023/08/16 00:03:05;;;;;;;;;;;;;;;17.38;45.35;100614.88;5097994;28;1011;-58
2023/08/16 00:05:32;;;;;;;;;;;;;;;17.41;45.07;100609.59;5098378;28;1925;-59
2023/08/16 00:07:57;;;;;;;;;;;;;;;17.43;45.05;100601.06;5098266;28;979;-58
2023/08/16 00:10:23;;;;;;;;;;;;;;;17.42;45.12;100599.44;5098063;28;852;-59
2023/08/16 00:12:48;;;;;;;;;;;;;;;17.40;45.28;100596.16;5097046;28;1093;-58
2023/08/16 00:15:13;;;;;;;;;;;;;;;17.36;45.14;100595.91;5097860;28;1103;-58
2023/08/16 00:17:39;;;;;;;;;;;;;;;17.40;45.00;100586.00;5098089;28;1081;-59
2023/08/16 00:20:06;;;;;;;;;;;;;;;17.47;45.09;100568.34;5092101;28;2241;-59
2023/08/16 00:22:31;;;;;;;;;;;;;;;17.42;45.04;100567.28;5094003;28;1030;-60
2023/08/16 00:24:57;;;;;;;;;;;;;;;17.37;45.02;100567.31;5097747;28;1909;-60
2023/08/16 00:27:22;;;;;;;;;;;;;;;17.44;44.90;100564.25;5097607;28;1125;-59
2023/08/16 00:29:48;;;;;;;;;;;;;;;17.42;44.94;100575.53;5097859;28;1022;-58
2023/08/16 00:32:13;;;;;;;;;;;;;;;17.44;44.72;100564.25;5098041;28;1118;-58
2023/08/16 00:34:39;;;;;;;;;;;;;;;17.32;44.96;100561.84;5097741;28;924;-58
2023/08/16 00:37:04;;;;;;;;;;;;;;;17.33;44.78;100557.97;5097607;28;1094;-58
2023/08/16 00:39:30;;;;;;;;;;;;;;;17.35;45.10;100542.03;5097679;28;1050;-58
2023/08/16 00:41:55;;;;;;;;;;;;;;;18.08;46.29;100556.09;5097752;28;1059;-58
2023/08/16 00:44:21;;;;;;;;;;;;;;;17.70;46.89;100567.66;5097634;28;1214;-58
2023/08/16 00:46:46;;;;;;;;;;;;;;;17.69;46.26;100581.69;5097151;28;2020;-59
2023/08/16 00:49:12;;;;;;;;;;;;;;;17.56;46.36;100605.16;5097219;28;1024;-58
2023/08/16 00:51:37;;;;;;;;;;;;;;;17.60;45.60;100620.78;5096970;28;2644;-58
2023/08/16 00:54:03;;;;;;;;;;;;;;;17.58;45.58;100630.41;5097372;28;1106;-58
2023/08/16 00:56:28;;;;;;;;;;;;;;;17.54;45.49;100648.59;5078998;28;1145;-58
2023/08/16 00:58:54;;;;;;;;;;;;;;;17.52;45.51;100668.13;5078886;28;1629;-58
2023/08/16 01:01:19;;;;;;;;;;;;;;;17.52;45.23;100681.84;5097057;28;992;-58
2023/08/16 01:03:46;;;;;;;;;;;;;;;17.45;45.03;100686.84;5097219;28;1014;-57
2023/08/16 01:06:11;;;;;;;;;;;;;;;17.46;45.19;100688.50;5097146;28;1991;-57
2023/08/16 01:08:37;;;;;;;;;;;;;;;17.49;45.00;100692.59;5079161;28;1282;-58
2023/08/16 01:11:12;;;;;;;;;;;;;;;17.45;44.76;100706.91;5096601;28;990;-58
2023/08/16 01:13:46;;;;;;;;;;;;;;;17.48;44.91;100723.94;5097270;28;995;-58
2023/08/16 01:16:12;;;;;;;;;;;;;;;17.44;44.89;100727.22;5078731;28;1516;-58
2023/08/16 01:18:37;;;;;;;;;;;;;;;17.41;44.89;100727.00;5097062;28;1018;-57
2023/08/16 01:21:04;;;;;;;;;;;;;;;17.38;44.71;100728.38;5069012;28;1817;-58
2023/08/16 01:23:45;;;;;;;;;;;;;;;17.35;44.88;100704.19;5078538;28;984;-59
2023/08/16 01:26:25;;;;;;;;;;;;;;;17.40;44.53;100701.44;5095536;28;1972;-59
2023/08/16 01:28:51;;;;;;;;;;;;;;;17.36;44.43;100719.59;5077688;28;1093;-59
2023/08/16 01:31:16;;;;;;;;;;;;;;;17.38;44.30;100744.88;5096550;28;1230;-59
2023/08/16 01:33:42;;;;;;;;;;;;;;;17.33;44.35;100742.13;5096612;28;1019;-59
2023/08/16 01:36:07;;;;;;;;;;;;;;;17.37;44.29;100739.66;5096832;28;1015;-60
2023/08/16 01:38:33;;;;;;;;;;;;;;;17.40;44.22;100737.19;5096218;28;1134;-59
2023/08/16 01:40:59;;;;;;;;;;;;;;;17.35;44.33;100728.94;5096473;28;1149;-59
2023/08/16 01:43:25;;;;;;;;;;;;;;;17.38;44.19;100736.63;5078250;28;1985;-59
2023/08/16 01:45:51;;;;;;;;;;;;;;;17.30;44.32;100742.69;5078088;28;1972;-59
2023/08/16 01:48:17;;;;;;;;;;;;;;;17.26;44.28;100733.34;5095925;28;1070;-59
2023/08/16 01:50:42;;;;;;;;;;;;;;;17.32;44.45;100735.00;5077965;28;2602;-58
2023/08/16 01:53:08;;;;;;;;;;;;;;;17.26;44.48;100728.69;5078481;28;1193;-59
2023/08/16 01:55:33;;;;;;;;;;;;;;;17.33;44.35;100730.31;5078322;28;1372;-58
2023/08/16 01:57:59;;;;;;;;;;;;;;;17.32;44.51;100739.66;5077915;28;1080;-58
2023/08/16 02:00:25;;;;;;;;;;;;;;;17.30;44.32;100739.94;5078473;28;1116;-59
2023/08/16 02:02:50;;;;;;;;;;;;;;;17.27;44.44;100741.31;5096213;28;1018;-59
2023/08/16 02:05:16;;;;;;;;;;;;;;;17.24;44.55;100736.38;5095973;28;1906;-59
2023/08/16 02:07:41;;;;;;;;;;;;;;;17.30;44.05;100748.19;5095791;28;987;-59
2023/08/16 02:10:07;;;;;;;;;;;;;;;17.29;44.30;100738.28;5080584;28;1138;-60
2023/08/16 02:12:33;;;;;;;;;;;;;;;17.20;44.59;100746.28;5090376;28;1132;-60
2023/08/16 02:14:58;;;;;;;;;;;;;;;17.25;44.20;100748.19;5078023;28;1092;-59
2023/08/16 02:17:24;;;;;;;;;;;;;;;17.14;44.34;100736.41;5078241;28;1177;-60
2023/08/16 02:19:49;;;;;;;;;;;;;;;17.22;44.17;100726.75;5074071;28;1837;-60
2023/08/16 02:22:15;;;;;;;;;;;;;;;17.18;44.29;100715.53;5072111;28;1210;-57
2023/08/16 02:24:40;;;;;;;;;;;;;;;17.28;44.26;100709.19;5095847;28;1055;-57
2023/08/16 02:27:06;;;;;;;;;;;;;;;17.13;44.73;100701.78;5077850;28;1986;-57
2023/08/16 02:29:31;;;;;;;;;;;;;;;17.26;44.32;100689.38;5078054;28;1141;-58
2023/08/16 02:31:57;;;;;;;;;;;;;;;17.26;44.31;100689.38;5096049;28;1087;-59
2023/08/16 02:34:22;;;;;;;;;;;;;;;17.24;44.30;100688.84;5095697;28;1177;-60
2023/08/16 02:36:48;;;;;;;;;;;;;;;17.17;44.40;100693.81;5095912;28;1018;-59
2023/08/16 02:39:14;;;;;;;;;;;;;;;17.18;44.33;100685.31;5099424;28;1114;-59
2023/08/16 02:41:40;;;;;;;;;;;;;;;17.32;44.02;100674.53;5099822;28;1026;-59
2023/08/16 02:44:05;;;;;;;;;;;;;;;18.10;45.61;100684.03;5100108;28;1141;-59
2023/08/16 02:46:33;;;;;;;;;;;;;;;17.56;46.35;100665.63;5081090;28;1902;-58
2023/08/16 02:48:58;;;;;;;;;;;;;;;17.52;45.75;100665.38;5100045;28;1007;-58
2023/08/16 02:51:24;;;;;;;;;;;;;;;17.52;45.68;100689.28;5097029;28;2555;-58
2023/08/16 02:53:49;;;;;;;;;;;;;;;17.44;45.27;100697.00;5081777;28;1213;-58
2023/08/16 02:56:15;;;;;;;;;;;;;;;17.40;45.17;100678.59;5081374;28;1377;-58
2023/08/16 02:58:40;;;;;;;;;;;;;;;17.37;45.08;100673.69;5099140;28;1073;-58
2023/08/16 03:01:07;;;;;;;;;;;;;;;17.30;45.29;100671.22;5099245;28;1106;-59
2023/08/16 03:03:33;;;;;;;;;;;;;;;17.39;45.13;100683.28;5081727;28;1162;-59
2023/08/16 03:05:58;;;;;;;;;;;;;;;17.48;44.59;100696.47;5099139;28;1979;-59
2023/08/16 03:08:24;;;;;;;;;;;;;;;17.35;44.89;100719.84;5086872;28;1084;-59
2023/08/16 03:10:49;;;;;;;;;;;;;;;17.35;44.62;100730.84;5097971;28;1107;-59
2023/08/16 03:13:15;;;;;;;;;;;;;;;17.33;44.63;100739.38;5099428;28;1023;-59
2023/08/16 03:15:41;;;;;;;;;;;;;;;17.36;44.28;100738.84;5099565;28;1126;-60
2023/08/16 03:18:06;;;;;;;;;;;;;;;17.32;44.52;100737.75;5099339;28;1141;-59
2023/08/16 03:20:32;;;;;;;;;;;;;;;17.28;44.32;100731.97;5090481;28;2293;-56
2023/08/16 03:22:58;;;;;;;;;;;;;;;17.37;44.25;100734.16;5080771;28;1160;-58
2023/08/16 03:25:23;;;;;;;;;;;;;;;17.31;44.38;100741.59;5099105;28;1910;-59
2023/08/16 03:27:49;;;;;;;;;;;;;;;17.28;44.68;100731.97;5099211;28;1125;-58
2023/08/16 03:30:15;;;;;;;;;;;;;;;17.26;44.48;100725.09;5080876;28;1157;-57
2023/08/16 03:32:42;;;;;;;;;;;;;;;17.32;44.51;100725.91;5080234;28;1101;-53
2023/08/16 03:35:07;;;;;;;;;;;;;;;17.21;44.59;100719.66;5080454;28;1157;-54
2023/08/16 03:37:33;;;;;;;;;;;;;;;17.23;44.63;100720.97;5080430;28;1087;-52
2023/08/16 03:39:59;;;;;;;;;;;;;;;17.29;44.21;100727.28;5080391;28;1227;-54
2023/08/16 03:42:25;;;;;;;;;;;;;;;17.21;44.29;100720.47;5080652;28;1121;-54
2023/08/16 03:44:50;;;;;;;;;;;;;;;17.29;44.31;100727.28;5080430;28;1139;-55
2023/08/16 03:47:15;;;;;;;;;;;;;;;17.19;44.66;100716.34;5080081;28;1914;-52
2023/08/16 03:49:42;;;;;;;;;;;;;;;17.19;44.31;100708.09;5095301;28;2403;-52
2023/08/16 03:52:08;;;;;;;;;;;;;;;17.22;44.34;100715.78;5098153;28;999;-51
2023/08/16 03:54:33;;;;;;;;;;;;;;;17.19;44.33;100722.66;5080087;28;1078;-50
2023/08/16 03:56:59;;;;;;;;;;;;;;;17.24;44.25;100713.59;5097867;28;1002;-57
2023/08/16 03:59:24;;;;;;;;;;;;;;;17.13;44.64;100717.47;5067967;28;1279;-56
2023/08/16 04:01:50;;;;;;;;;;;;;;;17.23;44.25;100699.00;5083028;28;1063;-55
2023/08/16 04:04:16;;;;;;;;;;;;;;;17.45;45.21;100692.34;5098410;28;1046;-53
2023/08/16 04:06:41;;;;;;;;;;;;;;;17.80;45.93;100687.78;5097557;28;1902;-56
2023/08/16 04:09:08;;;;;;;;;;;;;;;17.54;46.14;100676.88;5079866;28;1253;-56
2023/08/16 04:11:34;;;;;;;;;;;;;;;17.49;45.85;100693.44;5091628;28;1127;-55
2023/08/16 04:14:00;;;;;;;;;;;;;;;17.48;45.58;100674.47;5072556;28;1309;-56
2023/08/16 04:16:26;;;;;;;;;;;;;;;17.33;45.56;100680.84;5097695;28;1062;-55
2023/08/16 04:18:53;;;;;;;;;;;;;;;17.43;45.37;100687.13;5098298;28;1050;-57
2023/08/16 04:21:19;;;;;;;;;;;;;;;17.31;45.50;100685.81;5088646;28;1831;-55
2023/08/16 04:23:44;;;;;;;;;;;;;;;17.41;44.98;100675.56;5078021;28;1069;-55
2023/08/16 04:26:11;;;;;;;;;;;;;;;17.35;45.23;100678.63;5059654;28;1922;-55
2023/08/16 04:28:37;;;;;;;;;;;;;;;17.31;45.31;100711.34;5060030;28;1338;-54
2023/08/16 04:31:04;;;;;;;;;;;;;;;17.41;44.70;100722.31;5078592;28;1273;-51
2023/08/16 04:33:30;;;;;;;;;;;;;;;17.35;44.87;100747.34;5066247;28;1146;-53
2023/08/16 04:35:55;;;;;;;;;;;;;;;17.33;44.92;100750.38;5079274;28;1110;-48
2023/08/16 04:38:22;;;;;;;;;;;;;;;17.33;44.77;100758.59;5084100;28;1122;-51
2023/08/16 04:40:49;;;;;;;;;;;;;;;17.38;44.73;100766.84;5097863;28;1010;-52
2023/08/16 04:43:16;;;;;;;;;;;;;;;17.33;44.96;100755.84;5084090;28;2259;-53
2023/08/16 04:45:41;;;;;;;;;;;;;;;17.83;44.94;100760.66;5067136;28;1910;-53
2023/08/16 04:48:08;;;;;;;;;;;;;;;18.46;44.40;100749.81;5066224;28;1081;-52
2023/08/16 04:50:33;;;;;;;;;;;;;;;18.20;45.90;100734.59;5076296;28;1215;-52
2023/08/16 04:53:00;;;;;;;;;;;;;;;18.05;46.74;100725.34;5059499;28;1491;-53
2023/08/16 04:55:27;;;;;;;;;;;;;;;17.97;47.28;100719.63;5069750;28;1588;-51
2023/08/16 04:57:52;;;;;;;;;;;;;;;17.90;48.17;100725.41;5063236;28;1267;-54
2023/08/16 05:00:19;;;;;;;;;;;;;;;17.90;48.52;100726.22;5075839;28;1254;-52
2023/08/16 05:02:54;;;;;;;;;;;;;;;17.84;49.04;100743.00;5064540;28;1386;-52
2023/08/16 05:05:19;;;;;;;;;;;;;;;17.82;49.60;100751.56;5058889;28;1909;-53
2023/08/16 05:07:45;;;;;;;;;;;;;;;17.77;50.04;100760.66;5090482;28;1120;-53
2023/08/16 05:10:11;;;;;;;;;;;;;;;17.73;50.20;100751.31;5077506;28;1050;-55
2023/08/16 05:12:36;;;;;;;;;;;;;;;17.68;50.52;100753.28;5078377;28;1117;-52
2023/08/16 05:15:02;;;;;;;;;;;;;;;17.65;50.45;100751.91;5078809;28;1279;-53
2023/08/16 05:17:30;;;;;;;;;;;;;;;17.58;51.11;100763.19;5067435;28;1496;-49
2023/08/16 05:19:55;;;;;;;;;;;;;;;17.57;51.25;100764.31;5078880;28;1284;-52
2023/08/16 05:22:24;;;;;;;;;;;;;;;17.53;51.30;100770.66;5097027;28;1316;-52
2023/08/16 05:24:49;;;;;;;;;;;;;;;17.55;51.50;100758.28;5092689;28;1042;-49
2023/08/16 05:27:15;;;;;;;;;;;;;;;17.50;51.61;100776.72;5076967;28;1910;-55
2023/08/16 05:29:40;;;;;;;;;;;;;;;17.50;51.97;100761.06;5092657;28;1098;-50
2023/08/16 05:32:06;;;;;;;;;;;;;;;17.53;52.55;100754.16;5095667;28;1160;-53
2023/08/16 05:34:32;;;;;;;;;;;;;;;17.52;52.21;100742.34;5094693;28;1327;-52
2023/08/16 05:36:57;;;;;;;;;;;;;;;17.53;52.23;100729.41;5076590;28;906;-51
2023/08/16 05:39:23;;;;;;;;;;;;;;;17.47;52.54;100744.28;5091151;28;1174;-52
2023/08/16 05:41:48;;;;;;;;;;;;;;;17.49;52.73;100748.41;5096759;28;1062;-51
2023/08/16 05:44:14;;;;;;;;;;;;;;;17.42;52.97;100737.69;5088560;28;1157;-52
2023/08/16 05:46:39;;;;;;;;;;;;;;;17.40;52.99;100737.19;5095618;28;2010;-50
2023/08/16 05:49:05;;;;;;;;;;;;;;;17.41;53.15;100736.06;5095559;28;1111;-50
2023/08/16 05:51:32;;;;;;;;;;;;;;;17.39;53.37;100727.28;5083820;28;1191;-51
2023/08/16 05:53:57;;;;;;;;;;;;;;;17.47;52.96;100722.28;5095349;28;1097;-50
2023/08/16 05:56:23;;;;;;;;;;;;;;;17.36;53.58;100703.09;5084053;28;1046;-54
2023/08/16 05:58:48;;;;;;;;;;;;;;;17.38;54.04;100687.13;5087963;28;1202;-52
2023/08/16 06:01:14;;;;;;;;;;;;;;;17.40;54.11;100673.13;5090279;28;1206;-50
2023/08/16 06:03:39;;;;;;;;;;;;;;;17.42;54.05;100654.44;5096349;28;1086;-50
2023/08/16 06:06:04;;;;;;;;;;;;;;;17.34;54.13;100620.09;5082064;28;1901;-52
2023/08/16 06:08:30;;;;;;;;;;;;;;;17.38;54.15;100631.34;5076360;28;1063;-52
2023/08/16 06:10:56;;;;;;;;;;;;;;;17.39;54.26;100647.56;5084994;28;1023;-53
2023/08/16 06:13:21;;;;;;;;;;;;;;;17.40;54.28;100645.63;5098707;28;1255;-52
2023/08/16 06:15:47;;;;;;;;;;;;;;;17.40;54.11;100629.13;5101885;28;1085;-51
2023/08/16 06:18:13;;;;;;;;;;;;;;;17.41;54.06;100615.09;5089867;28;1154;-51
2023/08/16 06:20:39;;;;;;;;;;;;;;;17.38;54.43;100607.44;5096933;28;1094;-52
2023/08/16 06:23:04;;;;;;;;;;;;;;;17.38;54.14;100585.44;5094428;28;1051;-52
2023/08/16 06:25:30;;;;;;;;;;;;;;;17.38;54.45;100604.69;5101258;28;1906;-51
2023/08/16 06:27:55;;;;;;;;;;;;;;;17.42;54.41;100605.75;5102789;28;1085;-52
2023/08/16 06:30:21;;;;;;;;;;;;;;;17.29;54.68;100633.84;5089507;28;1134;-52
2023/08/16 06:32:46;;;;;;;;;;;;;;;17.37;54.32;100649.75;5088698;28;1414;-51
2023/08/16 06:35:12;;;;;;;;;;;;;;;17.36;54.36;100661.88;5102124;28;1323;-56
2023/08/16 06:37:38;;;;;;;;;;;;;;;17.29;54.52;100658.59;5082082;28;999;-54
2023/08/16 06:40:04;;;;;;;;;;;;;;;17.33;54.38;100661.59;5100667;28;1138;-54
2023/08/16 06:42:31;;;;;;;;;;;;;;;17.33;54.27;100659.66;5091607;28;1006;-54
2023/08/16 06:44:56;;;;;;;;;;;;;;;17.35;54.19;100671.22;5087193;28;1043;-52
2023/08/16 06:47:22;;;;;;;;;;;;;;;17.32;54.39;100674.53;5100325;28;1914;-52
2023/08/16 06:49:47;;;;;;;;;;;;;;;17.33;54.35;100695.41;5091233;28;929;-53
2023/08/16 06:52:13;;;;;;;;;;;;;;;17.27;54.38;100713.03;5098439;28;1130;-52
2023/08/16 06:54:38;;;;;;;;;;;;;;;17.28;54.01;100709.19;5102231;28;1327;-51
2023/08/16 06:57:05;;;;;;;;;;;;;;;17.28;54.36;100715.47;5114463;28;1302;-52
2023/08/16 06:59:31;;;;;;;;;;;;;;;17.31;54.19;100719.59;5102058;28;1182;-52
2023/08/16 07:01:59;;;;;;;;;;;;;;;17.35;54.69;100720.69;5086276;28;1028;-49
2023/08/16 07:04:24;;;;;;;;;;;;;;;17.34;54.60;100726.47;5095687;28;1218;-54
2023/08/16 07:06:50;;;;;;;;;;;;;;;17.31;54.49;100729.78;5102242;28;1917;-54
2023/08/16 07:09:15;;;;;;;;;;;;;;;17.28;54.41;100751.22;5101908;28;1629;-52
2023/08/16 07:11:41;;;;;;;;;;;;;;;17.28;54.23;100767.69;5102818;28;1107;-52
2023/08/16 07:14:06;;;;;;;;;;;;;;;17.24;54.25;100758.38;5091404;28;1427;-55
2023/08/16 07:16:33;;;;;;;;;;;;;;;17.27;54.22;100757.00;5102385;28;1397;-52
2023/08/16 07:18:58;;;;;;;;;;;;;;;17.32;54.11;100754.25;5101669;28;1304;-54
2023/08/16 07:21:24;;;;;;;;;;;;;;;17.26;54.22;100752.59;5089130;28;1093;-52
2023/08/16 07:23:49;;;;;;;;;;;;;;;17.23;54.30;100756.72;5099872;28;1018;-53
2023/08/16 07:26:15;;;;;;;;;;;;;;;17.32;53.99;100762.47;5094540;28;1902;-52
2023/08/16 07:28:40;;;;;;;;;;;;;;;17.32;53.88;100754.25;5080131;28;1059;-56
2023/08/16 07:31:06;;;;;;;;;;;;;;;17.26;54.11;100758.09;5093426;28;1428;-49
2023/08/16 07:33:32;;;;;;;;;;;;;;;17.22;54.29;100759.75;5099162;28;1104;-53
2023/08/16 07:36:01;;;;;;;;;;;;;;;17.31;53.97;100774.56;5098386;28;1014;-53
2023/08/16 07:38:28;;;;;;;;;;;;;;;17.27;54.00;100766.03;5097629;28;899;-55
2023/08/16 07:40:54;;;;;;;;;;;;;;;17.33;54.04;100758.59;5080378;28;1035;-52
2023/08/16 07:43:19;;;;;;;;;;;;;;;17.28;54.35;100769.63;5078429;28;1235;-48
2023/08/16 07:45:45;;;;;;;;;;;;;;;17.37;53.87;100762.44;5083068;28;1902;-52
2023/08/16 07:48:10;;;;;;;;;;;;;;;17.32;54.31;100770.72;5098024;28;1343;-54
2023/08/16 07:50:36;;;;;;;;;;;;;;;17.24;54.46;100772.09;5092949;28;1007;-55
2023/08/16 07:53:02;;;;;;;;;;;;;;;17.32;54.12;100775.38;5098612;28;1296;-54
2023/08/16 07:55:31;;;;;;;;;;;;;;;17.24;54.52;100779.53;5093006;28;1098;-54
2023/08/16 07:57:57;;;;;;;;;;;;;;;17.32;54.50;100795.47;5087657;28;1117;-55
2023/08/16 08:00:23;;;;;;;;;;;;;;;17.31;54.34;100784.75;5072777;28;1055;-53
2023/08/16 08:02:48;;;;;;;;;;;;;;;17.28;54.52;100794.38;5078572;28;873;-51
2023/08/16 08:05:15;;;;;;;;;;;;;;;17.33;54.55;100799.03;5083965;28;1047;-52
2023/08/16 08:07:40;;;;;;;;;;;;;;;17.35;54.75;100788.56;5098300;28;1177;-51
2023/08/16 08:10:06;;;;;;;;;;;;;;;17.30;54.86;100783.91;5097585;28;1118;-52
2023/08/16 08:12:32;;;;;;;;;;;;;;;17.30;54.64;100794.91;5098545;28;1134;-51
2023/08/16 08:14:58;;;;;;;;;;;;;;;17.31;54.55;100790.25;5097177;28;1026;-51
2023/08/16 08:17:23;;;;;;;;;;;;;;;17.35;54.50;100791.31;5098222;28;1403;-51
2023/08/16 08:19:49;;;;;;;;;;;;;;;17.38;54.34;100788.03;5098171;28;1332;-49
2023/08/16 08:22:14;;;;;;;;;;;;;;;17.35;54.67;100796.81;5097322;28;1117;-51
2023/08/16 08:24:40;;;;;;;;;;;;;;;17.35;54.57;100792.16;5095462;28;1293;-45
2023/08/16 08:27:05;;;;;;;;;;;;;;;17.36;54.74;100793.81;5067695;28;1914;-51
2023/08/16 08:29:31;;;;;;;;;;;;;;;17.39;54.68;100784.16;5096852;28;2670;-49
2023/08/16 08:31:56;;;;;;;;;;;;;;;17.36;54.54;100793.81;5097002;28;2073;-52
2023/08/16 08:34:23;;;;;;;;;;;;;;;17.39;54.55;100787.75;5097262;28;1809;-53
2023/08/16 08:36:49;;;;;;;;;;;;;;;17.36;54.91;100791.06;5095401;28;2097;-50
2023/08/16 08:39:18;;;;;;;;;;;;;;;17.43;54.48;100791.59;5080798;28;1771;-52
2023/08/16 08:41:45;;;;;;;;;;;;;;;17.37;54.91;100792.69;5097032;28;2092;-51
2023/08/16 08:44:11;;;;;;;;;;;;;;;17.40;54.77;100783.06;5096793;28;2020;-52
2023/08/16 08:46:36;;;;;;;;;;;;;;;17.39;54.86;100787.75;5096908;28;1910;-53
2023/08/16 08:49:02;;;;;;;;;;;;;;;17.43;54.92;100782.50;5078839;28;1138;-53
2023/08/16 08:51:28;;;;;;;;;;;;;;;17.37;55.07;100773.44;5096840;28;1190;-51
2023/08/16 08:53:54;;;;;;;;;;;;;;;17.42;55.02;100767.94;5097155;28;1062;-50
2023/08/16 08:56:19;;;;;;;;;;;;;;;17.51;54.90;100759.13;5095970;28;1300;-49
2023/08/16 08:58:45;;;;;;;;;;;;;;;17.38;55.26;100764.09;5097328;28;1042;-50
2023/08/16 09:01:11;;;;;;;;;;;;;;;17.47;54.90;100761.59;5078900;28;1185;-46
2023/08/16 09:03:36;;;;;;;;;;;;;;;17.44;55.05;100756.66;5097305;28;1117;-50
2023/08/16 09:06:03;;;;;;;;;;;;;;;17.45;55.23;100758.31;5078476;28;1921;-51
2023/08/16 09:08:29;;;;;;;;;;;;;;;17.47;54.94;100760.78;5089707;28;1038;-52
2023/08/16 09:10:55;;;;;;;;;;;;;;;17.48;55.06;100757.75;5088340;28;1011;-50
2023/08/16 09:13:20;;;;;;;;;;;;;;;17.51;55.18;100750.88;5096436;28;1110;-50
2023/08/16 09:15:46;;;;;;;;;;;;;;;17.53;55.20;100749.50;5064950;28;1190;-51
2023/08/16 09:18:12;;;;;;;;;;;;;;;17.44;55.16;100751.16;5091110;28;1357;-56
2023/08/16 09:20:38;;;;;;;;;;;;;;;17.47;55.23;100744.28;5097270;28;1312;-53
2023/08/16 09:23:03;;;;;;;;;;;;;;;17.46;55.24;100743.47;5096619;28;1027;-52
2023/08/16 09:25:29;;;;;;;;;;;;;;;17.47;55.22;100747.03;5093768;28;1918;-55
2023/08/16 09:27:55;;;;;;;;;;;;;;;17.50;55.19;100740.97;5091130;28;1312;-52
2023/08/16 09:30:20;;;;;;;;;;;;;;;17.47;55.62;100749.78;5078678;28;1394;-54
2023/08/16 09:32:46;;;;;;;;;;;;;;;17.50;55.54;100751.97;5096162;28;1288;-51
2023/08/16 09:35:12;;;;;;;;;;;;;;;17.46;55.56;100748.97;5096373;28;1272;-55
2023/08/16 09:37:38;;;;;;;;;;;;;;;17.54;55.43;100744.81;5094780;28;1027;-53
2023/08/16 09:40:06;;;;;;;;;;;;;;;17.53;55.35;100746.75;5096529;28;1252;-53
2023/08/16 09:42:34;;;;;;;;;;;;;;;17.54;55.25;100753.06;5096227;28;1382;-49
2023/08/16 09:45:00;;;;;;;;;;;;;;;17.54;55.24;100751.13;5086916;28;1091;-54
2023/08/16 09:47:28;;;;;;;;;;;;;;;17.54;55.17;100750.31;5078421;28;1968;-54
2023/08/16 09:49:54;;;;;;;;;;;;;;;17.58;55.03;100751.38;5068638;28;1083;-54
2023/08/16 09:52:19;;;;;;;;;;;;;;;17.56;55.22;100759.94;5078846;28;1035;-53
2023/08/16 09:54:48;;;;;;;;;;;;;;;17.53;55.44;100756.91;5068543;28;1122;-53
2023/08/16 09:57:14;;;;;;;;;;;;;;;17.52;55.60;100772.59;5076251;28;1008;-51
2023/08/16 09:59:39;;;;;;;;;;;;;;;17.51;55.55;100773.69;5090497;28;1147;-53
2023/08/16 10:02:05;;;;;;;;;;;;;;;17.56;55.17;100772.84;5088479;28;1142;-53
2023/08/16 10:04:31;;;;;;;;;;;;;;;17.49;55.36;100791.56;5090021;28;1282;-52
2023/08/16 10:06:57;;;;;;;;;;;;;;;17.54;55.17;100795.09;5096238;28;1975;-49
2023/08/16 10:09:22;;;;;;;;;;;;;;;17.58;55.29;100798.13;5074419;28;1149;-52
2023/08/16 10:11:49;;;;;;;;;;;;;;;17.58;55.25;100787.13;5058246;28;1197;-52
2023/08/16 10:14:14;;;;;;;;;;;;;;;17.59;55.32;100788.78;5089679;28;1085;-52
2023/08/16 10:16:40;;;;;;;;;;;;;;;17.65;55.41;100781.34;5074893;28;1180;-53
2023/08/16 10:19:06;;;;;;;;;;;;;;;17.62;55.50;100785.47;5089676;28;1213;-51
2023/08/16 10:21:34;;;;;;;;;;;;;;;17.65;55.51;100776.66;5078093;28;1030;-51
2023/08/16 10:23:59;;;;;;;;;;;;;;;17.65;55.65;100773.09;5094080;28;1058;-52
2023/08/16 10:26:25;;;;;;;;;;;;;;;17.67;55.67;100782.72;5059039;28;1956;-52
2023/08/16 10:28:52;;;;;;;;;;;;;;;17.69;55.54;100779.69;5073157;28;1160;-52
2023/08/16 10:31:19;;;;;;;;;;;;;;;17.70;55.75;100786.84;5096316;28;1081;-52
2023/08/16 10:33:46;;;;;;;;;;;;;;;17.64;55.84;100777.75;5090367;28;1018;-48
2023/08/16 10:36:11;;;;;;;;;;;;;;;17.73;55.58;100784.31;5077651;28;1268;-56
2023/08/16 10:38:37;;;;;;;;;;;;;;;17.66;55.80;100788.50;5095109;28;1184;-55
2023/08/16 10:41:03;;;;;;;;;;;;;;;17.69;55.63;100791.50;5095676;28;1292;-55
2023/08/16 10:43:34;;;;;;;;;;;;;;;17.74;55.72;100783.22;5077630;28;1467;-53
2023/08/16 10:46:00;;;;;;;;;;;;;;;17.74;55.58;100790.63;5094177;28;1902;-55
2023/08/16 10:48:30;;;;;;;;;;;;;;;17.78;55.54;100787.06;5083067;28;1067;-50
2023/08/16 10:50:58;;;;;;;;;;;;;;;17.76;55.56;100781.00;5067747;28;1191;-52
2023/08/16 10:53:25;;;;;;;;;;;;;;;17.75;55.84;100790.38;5095257;28;1265;-54
2023/08/16 10:55:52;;;;;;;;;;;;;;;17.73;55.86;100791.75;5087882;28;1172;-52
2023/08/16 10:58:23;;;;;;;;;;;;;;;17.77;55.75;100781.84;5087466;28;1053;-54
2023/08/16 11:00:58;;;;;;;;;;;;;;;17.82;55.49;100789.25;5089970;28;1106;-47
2023/08/16 11:03:33;;;;;;;;;;;;;;;17.75;55.51;100787.63;5098671;28;1046;-54
2023/08/16 11:05:59;;;;;;;;;;;;;;;17.74;55.86;100774.97;5081224;28;1910;-51
2023/08/16 11:08:27;;;;;;;;;;;;;;;17.79;55.72;100796.97;5086058;28;1024;-53
2023/08/16 11:10:53;;;;;;;;;;;;;;;17.81;55.60;100793.09;5071070;28;1197;-52
2023/08/16 11:13:18;;;;;;;;;;;;;;;17.78;55.76;100788.97;5096177;28;1089;-50
2023/08/16 11:15:44;;;;;;;;;;;;;;;17.76;56.06;100788.44;5098607;28;894;-53
2023/08/16 11:18:10;;;;;;;;;;;;;;;17.88;55.60;100785.34;5098989;28;1027;-55
2023/08/16 11:20:35;;;;;;;;;;;;;;;17.83;55.84;100786.22;5099289;28;1308;-51
2023/08/16 11:23:01;;;;;;;;;;;;;;;17.81;55.89;100793.94;5098815;28;1303;-52
2023/08/16 11:25:31;;;;;;;;;;;;;;;17.82;55.86;100792.00;5068833;28;1980;-53
2023/08/16 11:27:59;;;;;;;;;;;;;;;17.82;55.74;100778.25;5078415;28;1059;-55
2023/08/16 11:30:25;;;;;;;;;;;;;;;17.83;55.65;100793.66;5091729;28;1170;-53
2023/08/16 11:32:50;;;;;;;;;;;;;;;17.74;56.05;100791.47;5099053;28;1247;-52
2023/08/16 11:35:16;;;;;;;;;;;;;;;17.86;55.48;100785.63;5085325;28;1150;-52
2023/08/16 11:37:41;;;;;;;;;;;;;;;17.82;55.91;100764.50;5091419;28;1026;-53
2023/08/16 11:40:08;;;;;;;;;;;;;;;17.85;55.69;100772.19;5078593;28;833;-54
2023/08/16 11:42:34;;;;;;;;;;;;;;;17.76;55.85;100747.19;5086239;28;1038;-51
2023/08/16 11:44:59;;;;;;;;;;;;;;;17.81;55.95;100749.94;5085835;28;1043;-55
2023/08/16 11:47:25;;;;;;;;;;;;;;;17.86;55.60;100758.13;5097800;28;1981;-55
2023/08/16 11:49:51;;;;;;;;;;;;;;;17.80;55.78;100740.03;5084145;28;1071;-50
2023/08/16 11:52:20;;;;;;;;;;;;;;;17.81;55.85;100740.84;5094637;28;1175;-53
2023/08/16 11:54:46;;;;;;;;;;;;;;;17.79;56.07;100752.97;5097216;28;1105;-53
2023/08/16 11:57:16;;;;;;;;;;;;;;;17.79;55.97;100752.97;5085548;28;1150;-53
2023/08/16 11:59:42;;;;;;;;;;;;;;;17.79;55.89;100736.47;5097535;28;1410;-50
2023/08/16 12:02:08;;;;;;;;;;;;;;;17.80;55.88;100731.78;5098400;28;1268;-52
2023/08/16 12:04:34;;;;;;;;;;;;;;;17.80;55.71;100731.78;5088723;28;1087;-51
2023/08/16 12:06:59;;;;;;;;;;;;;;;17.79;55.92;100736.47;5064702;28;1914;-53
2023/08/16 12:09:25;;;;;;;;;;;;;;;17.90;55.88;100725.41;5069112;28;1059;-52
2023/08/16 12:11:54;;;;;;;;;;;;;;;17.87;55.76;100712.22;5093517;28;1287;-49
2023/08/16 12:14:19;;;;;;;;;;;;;;;17.85;55.84;100740.00;5085167;28;1060;-52
2023/08/16 12:16:45;;;;;;;;;;;;;;;17.84;56.01;100743.00;5092217;28;1146;-51
2023/08/16 12:19:10;;;;;;;;;;;;;;;17.81;56.01;100743.59;5097808;28;1420;-54
2023/08/16 12:21:36;;;;;;;;;;;;;;;17.85;55.96;100736.41;5098067;28;1387;-54
2023/08/16 12:24:01;;;;;;;;;;;;;;;17.81;56.19;100751.84;5097940;28;1411;-50
2023/08/16 12:26:27;;;;;;;;;;;;;;;17.87;55.92;100750.72;5095919;28;1964;-50
2023/08/16 12:28:52;;;;;;;;;;;;;;;17.86;56.06;100751.81;5068008;28;966;-52
2023/08/16 12:31:18;;;;;;;;;;;;;;;17.88;55.81;100749.59;5082773;28;1121;-50
2023/08/16 12:33:43;;;;;;;;;;;;;;;17.92;55.79;100761.72;5086214;28;1039;-52
2023/08/16 12:36:09;;;;;;;;;;;;;;;17.99;55.67;100751.22;5096513;28;1132;-54
2023/08/16 12:38:34;;;;;;;;;;;;;;;17.84;56.19;100771.38;5097499;28;1181;-54
2023/08/16 12:41:00;;;;;;;;;;;;;;;17.88;55.90;100768.84;5091580;28;967;-54